sensor_id;sensor_type;location;lat;lon;timestamp;P1;durP1;ratioP1;P2;durP2;ratioP2
42094;SDS011;27753;55.724;37.612;2023-05-16T00:00:17;14.65;;;7.13;;
42094;SDS011;27753;55.724;37.612;2023-05-16T00:02:44;19.05;;;7.80;;
42094;SDS011;27753;55.724;37.612;2023-05-16T00:05:10;17.35;;;8.45;;
42094;SDS011;27753;55.724;37.612;2023-05-16T00:07:38;12.48;;;7.18;;
42094;SDS011;27753;55.724;37.612;2023-05-16T00:10:06;18.92;;;7.35;;
42094;SDS011;27753;55.724;37.612;2023-05-16T00:12:32;22.88;;;7.88;;
42094;SDS011;27753;55.724;37.612;2023-05-16T00:15:00;20.48;;;7.75;;
42094;SDS011;27753;55.724;37.612;2023-05-16T00:17:27;21.20;;;8.13;;
42094;SDS011;27753;55.724;37.612;2023-05-16T00:19:53;24.38;;;8.75;;
42094;SDS011;27753;55.724;37.612;2023-05-16T00:22:22;23.33;;;7.97;;
42094;SDS011;27753;55.724;37.612;2023-05-16T00:24:49;22.02;;;7.70;;
42094;SDS011;27753;55.724;37.612;2023-05-16T00:27:15;19.85;;;8.20;;
42094;SDS011;27753;55.724;37.612;2023-05-16T00:29:41;17.33;;;7.80;;
42094;SDS011;27753;55.724;37.612;2023-05-16T00:32:07;18.55;;;7.85;;
42094;SDS011;27753;55.724;37.612;2023-05-16T00:34:33;20.80;;;8.23;;
42094;SDS011;27753;55.724;37.612;2023-05-16T00:36:59;18.98;;;8.10;;
42094;SDS011;27753;55.724;37.612;2023-05-16T00:39:25;21.02;;;8.10;;
42094;SDS011;27753;55.724;37.612;2023-05-16T00:41:51;21.70;;;8.73;;
42094;SDS011;27753;55.724;37.612;2023-05-16T00:44:18;19.67;;;8.23;;
42094;SDS011;27753;55.724;37.612;2023-05-16T00:46:43;16.95;;;8.30;;
42094;SDS011;27753;55.724;37.612;2023-05-16T00:49:09;21.42;;;8.18;;
42094;SDS011;27753;55.724;37.612;2023-05-16T00:51:36;19.17;;;8.85;;
42094;SDS011;27753;55.724;37.612;2023-05-16T00:56:29;23.58;;;8.20;;
42094;SDS011;27753;55.724;37.612;2023-05-16T00:58:55;22.02;;;10.15;;
42094;SDS011;27753;55.724;37.612;2023-05-16T01:01:22;18.90;;;8.30;;
42094;SDS011;27753;55.724;37.612;2023-05-16T01:03:49;22.35;;;8.93;;
42094;SDS011;27753;55.724;37.612;2023-05-16T01:06:15;18.83;;;8.27;;
42094;SDS011;27753;55.724;37.612;2023-05-16T01:08:41;24.60;;;8.77;;
42094;SDS011;27753;55.724;37.612;2023-05-16T01:11:27;19.20;;;8.95;;
42094;SDS011;27753;55.724;37.612;2023-05-16T01:16:53;27.85;;;8.38;;
42094;SDS011;27753;55.724;37.612;2023-05-16T01:24:33;28.35;;;12.40;;
42094;SDS011;27753;55.724;37.612;2023-05-16T01:27:12;26.45;;;11.95;;
42094;SDS011;27753;55.724;37.612;2023-05-16T01:29:40;25.08;;;11.40;;
42094;SDS011;27753;55.724;37.612;2023-05-16T01:32:05;36.67;;;12.23;;
42094;SDS011;27753;55.724;37.612;2023-05-16T01:34:31;35.17;;;12.23;;
42094;SDS011;27753;55.724;37.612;2023-05-16T01:39:58;35.60;;;15.82;;
42094;SDS011;27753;55.724;37.612;2023-05-16T01:42:34;35.28;;;15.82;;
42094;SDS011;27753;55.724;37.612;2023-05-16T01:45:14;34.83;;;15.05;;
42094;SDS011;27753;55.724;37.612;2023-05-16T01:47:43;35.88;;;15.63;;
42094;SDS011;27753;55.724;37.612;2023-05-16T01:50:15;39.08;;;15.13;;
42094;SDS011;27753;55.724;37.612;2023-05-16T01:53:05;24.25;;;14.18;;
42094;SDS011;27753;55.724;37.612;2023-05-16T01:55:45;34.88;;;13.98;;
42094;SDS011;27753;55.724;37.612;2023-05-16T01:58:16;25.98;;;13.77;;
42094;SDS011;27753;55.724;37.612;2023-05-16T02:00:45;34.75;;;14.48;;
42094;SDS011;27753;55.724;37.612;2023-05-16T02:03:11;24.65;;;12.73;;
42094;SDS011;27753;55.724;37.612;2023-05-16T02:05:37;28.77;;;13.73;;
42094;SDS011;27753;55.724;37.612;2023-05-16T02:08:03;23.25;;;13.60;;
42094;SDS011;27753;55.724;37.612;2023-05-16T02:10:29;28.30;;;13.82;;
42094;SDS011;27753;55.724;37.612;2023-05-16T02:12:55;23.23;;;13.73;;
42094;SDS011;27753;55.724;37.612;2023-05-16T02:15:22;26.77;;;14.00;;
42094;SDS011;27753;55.724;37.612;2023-05-16T02:17:47;27.27;;;14.73;;
42094;SDS011;27753;55.724;37.612;2023-05-16T02:20:13;31.65;;;14.32;;
42094;SDS011;27753;55.724;37.612;2023-05-16T02:22:39;31.08;;;15.23;;
42094;SDS011;27753;55.724;37.612;2023-05-16T02:25:08;31.88;;;15.60;;
42094;SDS011;27753;55.724;37.612;2023-05-16T02:27:34;35.38;;;14.43;;
42094;SDS011;27753;55.724;37.612;2023-05-16T02:30:00;30.67;;;17.13;;
42094;SDS011;27753;55.724;37.612;2023-05-16T02:32:26;28.92;;;15.55;;
42094;SDS011;27753;55.724;37.612;2023-05-16T02:34:52;27.13;;;15.13;;
42094;SDS011;27753;55.724;37.612;2023-05-16T02:37:18;34.35;;;16.92;;
42094;SDS011;27753;55.724;37.612;2023-05-16T02:39:44;32.55;;;16.02;;
42094;SDS011;27753;55.724;37.612;2023-05-16T02:42:10;28.67;;;16.02;;
42094;SDS011;27753;55.724;37.612;2023-05-16T02:44:36;31.48;;;15.63;;
42094;SDS011;27753;55.724;37.612;2023-05-16T02:47:01;30.98;;;14.65;;
42094;SDS011;27753;55.724;37.612;2023-05-16T02:49:27;30.80;;;15.77;;
42094;SDS011;27753;55.724;37.612;2023-05-16T02:51:54;26.85;;;15.13;;
42094;SDS011;27753;55.724;37.612;2023-05-16T02:54:20;27.13;;;15.05;;
42094;SDS011;27753;55.724;37.612;2023-05-16T02:56:46;24.65;;;14.07;;
42094;SDS011;27753;55.724;37.612;2023-05-16T02:59:12;23.35;;;14.10;;
42094;SDS011;27753;55.724;37.612;2023-05-16T03:01:38;24.10;;;14.40;;
42094;SDS011;27753;55.724;37.612;2023-05-16T03:04:04;21.02;;;12.57;;
42094;SDS011;27753;55.724;37.612;2023-05-16T03:06:30;28.42;;;13.25;;
42094;SDS011;27753;55.724;37.612;2023-05-16T03:08:56;28.48;;;13.32;;
42094;SDS011;27753;55.724;37.612;2023-05-16T03:11:21;26.50;;;13.50;;
42094;SDS011;27753;55.724;37.612;2023-05-16T03:13:50;25.35;;;12.27;;
42094;SDS011;27753;55.724;37.612;2023-05-16T03:16:15;29.55;;;12.30;;
42094;SDS011;27753;55.724;37.612;2023-05-16T03:18:41;19.90;;;10.38;;
42094;SDS011;27753;55.724;37.612;2023-05-16T03:21:07;22.17;;;10.80;;
42094;SDS011;27753;55.724;37.612;2023-05-16T03:23:33;17.85;;;11.10;;
42094;SDS011;27753;55.724;37.612;2023-05-16T03:25:59;23.45;;;11.98;;
42094;SDS011;27753;55.724;37.612;2023-05-16T03:28:25;20.83;;;10.30;;
42094;SDS011;27753;55.724;37.612;2023-05-16T03:30:51;21.65;;;10.30;;
42094;SDS011;27753;55.724;37.612;2023-05-16T03:33:17;24.35;;;11.05;;
42094;SDS011;27753;55.724;37.612;2023-05-16T03:35:43;19.13;;;9.88;;
42094;SDS011;27753;55.724;37.612;2023-05-16T03:38:10;23.30;;;9.07;;
42094;SDS011;27753;55.724;37.612;2023-05-16T03:40:36;18.08;;;9.50;;
42094;SDS011;27753;55.724;37.612;2023-05-16T03:43:02;19.90;;;9.07;;
42094;SDS011;27753;55.724;37.612;2023-05-16T03:45:30;21.95;;;9.50;;
42094;SDS011;27753;55.724;37.612;2023-05-16T03:47:56;15.00;;;9.25;;
42094;SDS011;27753;55.724;37.612;2023-05-16T03:50:22;14.77;;;8.30;;
42094;SDS011;27753;55.724;37.612;2023-05-16T03:52:49;15.70;;;8.23;;
42094;SDS011;27753;55.724;37.612;2023-05-16T03:55:16;19.70;;;9.00;;
42094;SDS011;27753;55.724;37.612;2023-05-16T03:57:42;14.63;;;7.25;;
42094;SDS011;27753;55.724;37.612;2023-05-16T04:00:09;16.05;;;8.02;;
42094;SDS011;27753;55.724;37.612;2023-05-16T04:05:06;20.60;;;8.73;;
42094;SDS011;27753;55.724;37.612;2023-05-16T04:07:32;26.30;;;10.40;;
42094;SDS011;27753;55.724;37.612;2023-05-16T04:09:58;17.17;;;8.88;;
42094;SDS011;27753;55.724;37.612;2023-05-16T04:12:24;21.65;;;8.73;;
42094;SDS011;27753;55.724;37.612;2023-05-16T04:14:50;20.33;;;8.60;;
42094;SDS011;27753;55.724;37.612;2023-05-16T04:17:16;13.05;;;7.03;;
42094;SDS011;27753;55.724;37.612;2023-05-16T04:19:42;15.88;;;7.93;;
42094;SDS011;27753;55.724;37.612;2023-05-16T04:22:08;17.35;;;8.27;;
42094;SDS011;27753;55.724;37.612;2023-05-16T04:24:33;13.88;;;6.03;;
42094;SDS011;27753;55.724;37.612;2023-05-16T04:26:59;13.73;;;6.88;;
42094;SDS011;27753;55.724;37.612;2023-05-16T04:29:26;19.67;;;7.57;;
42094;SDS011;27753;55.724;37.612;2023-05-16T04:31:51;14.68;;;8.13;;
42094;SDS011;27753;55.724;37.612;2023-05-16T04:34:17;20.27;;;8.48;;
42094;SDS011;27753;55.724;37.612;2023-05-16T04:36:43;18.05;;;8.57;;
42094;SDS011;27753;55.724;37.612;2023-05-16T04:39:09;13.88;;;8.15;;
42094;SDS011;27753;55.724;37.612;2023-05-16T04:41:35;22.90;;;8.82;;
42094;SDS011;27753;55.724;37.612;2023-05-16T04:44:01;20.73;;;8.63;;
42094;SDS011;27753;55.724;37.612;2023-05-16T04:46:28;15.53;;;7.70;;
42094;SDS011;27753;55.724;37.612;2023-05-16T04:48:55;15.07;;;7.65;;
42094;SDS011;27753;55.724;37.612;2023-05-16T04:51:21;18.15;;;6.90;;
42094;SDS011;27753;55.724;37.612;2023-05-16T04:53:47;10.98;;;7.22;;
42094;SDS011;27753;55.724;37.612;2023-05-16T04:56:13;16.15;;;8.25;;
42094;SDS011;27753;55.724;37.612;2023-05-16T04:58:39;23.42;;;7.22;;
42094;SDS011;27753;55.724;37.612;2023-05-16T05:01:05;16.38;;;7.15;;
42094;SDS011;27753;55.724;37.612;2023-05-16T05:03:31;17.17;;;8.00;;
42094;SDS011;27753;55.724;37.612;2023-05-16T05:05:57;15.25;;;6.63;;
42094;SDS011;27753;55.724;37.612;2023-05-16T05:08:23;13.98;;;7.13;;
42094;SDS011;27753;55.724;37.612;2023-05-16T05:10:48;15.18;;;7.15;;
42094;SDS011;27753;55.724;37.612;2023-05-16T05:13:14;14.98;;;6.40;;
42094;SDS011;27753;55.724;37.612;2023-05-16T05:15:40;13.70;;;6.78;;
42094;SDS011;27753;55.724;37.612;2023-05-16T05:18:06;21.60;;;6.55;;
42094;SDS011;27753;55.724;37.612;2023-05-16T05:20:32;10.60;;;5.82;;
42094;SDS011;27753;55.724;37.612;2023-05-16T05:22:58;9.30;;;5.80;;
42094;SDS011;27753;55.724;37.612;2023-05-16T05:25:24;12.98;;;5.65;;
42094;SDS011;27753;55.724;37.612;2023-05-16T05:27:50;17.67;;;6.07;;
42094;SDS011;27753;55.724;37.612;2023-05-16T05:30:16;18.58;;;6.07;;
42094;SDS011;27753;55.724;37.612;2023-05-16T05:32:42;11.88;;;5.82;;
42094;SDS011;27753;55.724;37.612;2023-05-16T05:35:08;12.43;;;5.15;;
42094;SDS011;27753;55.724;37.612;2023-05-16T05:37:34;13.13;;;6.40;;
42094;SDS011;27753;55.724;37.612;2023-05-16T05:40:00;13.10;;;6.10;;
42094;SDS011;27753;55.724;37.612;2023-05-16T05:42:27;14.02;;;5.80;;
42094;SDS011;27753;55.724;37.612;2023-05-16T05:44:52;13.50;;;5.28;;
42094;SDS011;27753;55.724;37.612;2023-05-16T05:47:19;11.43;;;4.00;;
42094;SDS011;27753;55.724;37.612;2023-05-16T05:49:45;7.80;;;4.55;;
42094;SDS011;27753;55.724;37.612;2023-05-16T05:52:11;15.83;;;4.27;;
42094;SDS011;27753;55.724;37.612;2023-05-16T05:54:37;13.45;;;3.75;;
42094;SDS011;27753;55.724;37.612;2023-05-16T05:57:03;8.88;;;3.92;;
42094;SDS011;27753;55.724;37.612;2023-05-16T05:59:29;10.52;;;4.13;;
42094;SDS011;27753;55.724;37.612;2023-05-16T06:01:56;9.97;;;3.67;;
42094;SDS011;27753;55.724;37.612;2023-05-16T06:04:22;7.00;;;2.95;;
42094;SDS011;27753;55.724;37.612;2023-05-16T06:06:47;6.85;;;2.80;;
42094;SDS011;27753;55.724;37.612;2023-05-16T06:09:13;11.52;;;3.47;;
42094;SDS011;27753;55.724;37.612;2023-05-16T06:11:40;8.00;;;3.47;;
42094;SDS011;27753;55.724;37.612;2023-05-16T06:14:07;7.47;;;3.40;;
42094;SDS011;27753;55.724;37.612;2023-05-16T06:16:34;14.68;;;3.33;;
42094;SDS011;27753;55.724;37.612;2023-05-16T06:19:00;12.37;;;4.20;;
42094;SDS011;27753;55.724;37.612;2023-05-16T06:21:26;11.23;;;2.80;;
42094;SDS011;27753;55.724;37.612;2023-05-16T06:23:52;19.02;;;3.15;;
42094;SDS011;27753;55.724;37.612;2023-05-16T06:26:17;7.93;;;2.47;;
42094;SDS011;27753;55.724;37.612;2023-05-16T06:28:44;6.60;;;2.15;;
42094;SDS011;27753;55.724;37.612;2023-05-16T06:31:10;7.80;;;2.27;;
42094;SDS011;27753;55.724;37.612;2023-05-16T06:33:36;10.73;;;1.97;;
42094;SDS011;27753;55.724;37.612;2023-05-16T06:36:01;4.93;;;1.83;;
42094;SDS011;27753;55.724;37.612;2023-05-16T06:38:27;5.07;;;2.00;;
42094;SDS011;27753;55.724;37.612;2023-05-16T06:40:53;6.63;;;1.93;;
42094;SDS011;27753;55.724;37.612;2023-05-16T06:43:19;10.48;;;1.88;;
42094;SDS011;27753;55.724;37.612;2023-05-16T06:45:45;3.67;;;1.50;;
42094;SDS011;27753;55.724;37.612;2023-05-16T06:48:12;10.70;;;1.90;;
42094;SDS011;27753;55.724;37.612;2023-05-16T06:50:41;3.92;;;1.90;;
42094;SDS011;27753;55.724;37.612;2023-05-16T06:53:07;8.73;;;2.43;;
42094;SDS011;27753;55.724;37.612;2023-05-16T06:55:33;8.38;;;1.98;;
42094;SDS011;27753;55.724;37.612;2023-05-16T06:57:59;7.40;;;2.03;;
42094;SDS011;27753;55.724;37.612;2023-05-16T07:00:25;4.70;;;1.90;;
42094;SDS011;27753;55.724;37.612;2023-05-16T07:02:51;9.75;;;2.88;;
42094;SDS011;27753;55.724;37.612;2023-05-16T07:05:17;9.30;;;2.25;;
42094;SDS011;27753;55.724;37.612;2023-05-16T07:07:43;5.38;;;2.20;;
42094;SDS011;27753;55.724;37.612;2023-05-16T07:10:09;6.53;;;2.40;;
42094;SDS011;27753;55.724;37.612;2023-05-16T07:12:36;7.43;;;2.08;;
42094;SDS011;27753;55.724;37.612;2023-05-16T07:17:28;4.88;;;2.00;;
42094;SDS011;27753;55.724;37.612;2023-05-16T07:19:54;14.52;;;2.80;;
42094;SDS011;27753;55.724;37.612;2023-05-16T07:22:20;6.90;;;2.33;;
42094;SDS011;27753;55.724;37.612;2023-05-16T07:24:46;7.65;;;2.08;;
42094;SDS011;27753;55.724;37.612;2023-05-16T07:27:11;5.93;;;2.38;;
42094;SDS011;27753;55.724;37.612;2023-05-16T07:29:37;8.18;;;2.13;;
42094;SDS011;27753;55.724;37.612;2023-05-16T07:32:03;7.53;;;2.05;;
42094;SDS011;27753;55.724;37.612;2023-05-16T07:34:30;13.10;;;5.05;;
42094;SDS011;27753;55.724;37.612;2023-05-16T07:36:55;6.63;;;1.90;;
42094;SDS011;27753;55.724;37.612;2023-05-16T07:39:21;7.80;;;2.10;;
42094;SDS011;27753;55.724;37.612;2023-05-16T07:41:47;4.50;;;1.48;;
42094;SDS011;27753;55.724;37.612;2023-05-16T07:44:13;9.40;;;2.40;;
42094;SDS011;27753;55.724;37.612;2023-05-16T07:46:39;6.25;;;1.88;;
42094;SDS011;27753;55.724;37.612;2023-05-16T07:49:05;6.88;;;2.05;;
42094;SDS011;27753;55.724;37.612;2023-05-16T07:51:31;6.15;;;1.95;;
42094;SDS011;27753;55.724;37.612;2023-05-16T07:53:57;9.48;;;1.80;;
42094;SDS011;27753;55.724;37.612;2023-05-16T07:56:23;11.82;;;1.95;;
42094;SDS011;27753;55.724;37.612;2023-05-16T07:58:48;5.65;;;2.10;;
42094;SDS011;27753;55.724;37.612;2023-05-16T08:01:14;8.65;;;2.08;;
42094;SDS011;27753;55.724;37.612;2023-05-16T08:03:41;5.88;;;1.77;;
42094;SDS011;27753;55.724;37.612;2023-05-16T08:06:07;9.90;;;2.28;;
42094;SDS011;27753;55.724;37.612;2023-05-16T08:08:33;4.80;;;1.65;;
42094;SDS011;27753;55.724;37.612;2023-05-16T08:10:59;9.40;;;2.38;;
42094;SDS011;27753;55.724;37.612;2023-05-16T08:13:25;5.15;;;1.95;;
42094;SDS011;27753;55.724;37.612;2023-05-16T08:15:51;7.72;;;2.08;;
42094;SDS011;27753;55.724;37.612;2023-05-16T08:18:17;6.43;;;1.63;;
42094;SDS011;27753;55.724;37.612;2023-05-16T08:20:42;7.00;;;1.77;;
42094;SDS011;27753;55.724;37.612;2023-05-16T08:23:09;11.10;;;2.30;;
42094;SDS011;27753;55.724;37.612;2023-05-16T08:25:34;7.45;;;2.05;;
42094;SDS011;27753;55.724;37.612;2023-05-16T08:28:00;7.03;;;2.45;;
42094;SDS011;27753;55.724;37.612;2023-05-16T08:32:53;5.03;;;1.67;;
42094;SDS011;27753;55.724;37.612;2023-05-16T08:37:45;4.25;;;1.30;;
42094;SDS011;27753;55.724;37.612;2023-05-16T08:42:38;8.38;;;1.50;;
42094;SDS011;27753;55.724;37.612;2023-05-16T08:47:31;11.13;;;1.98;;
42094;SDS011;27753;55.724;37.612;2023-05-16T08:49:58;5.68;;;1.58;;
42094;SDS011;27753;55.724;37.612;2023-05-16T08:52:26;5.95;;;1.75;;
42094;SDS011;27753;55.724;37.612;2023-05-16T08:54:59;10.43;;;1.83;;
42094;SDS011;27753;55.724;37.612;2023-05-16T08:57:32;3.10;;;1.80;;
42094;SDS011;27753;55.724;37.612;2023-05-16T08:59:58;5.25;;;1.58;;
42094;SDS011;27753;55.724;37.612;2023-05-16T09:02:25;5.70;;;1.55;;
42094;SDS011;27753;55.724;37.612;2023-05-16T09:04:52;6.53;;;1.35;;
42094;SDS011;27753;55.724;37.612;2023-05-16T09:07:21;3.90;;;1.52;;
42094;SDS011;27753;55.724;37.612;2023-05-16T09:09:47;2.70;;;1.00;;
42094;SDS011;27753;55.724;37.612;2023-05-16T09:12:13;6.13;;;1.90;;
42094;SDS011;27753;55.724;37.612;2023-05-16T09:14:39;9.90;;;2.00;;
42094;SDS011;27753;55.724;37.612;2023-05-16T09:17:06;5.07;;;1.10;;
42094;SDS011;27753;55.724;37.612;2023-05-16T09:19:39;7.95;;;1.85;;
42094;SDS011;27753;55.724;37.612;2023-05-16T09:22:07;5.70;;;1.40;;
42094;SDS011;27753;55.724;37.612;2023-05-16T09:24:40;6.00;;;1.20;;
42094;SDS011;27753;55.724;37.612;2023-05-16T09:27:08;1.67;;;1.10;;
42094;SDS011;27753;55.724;37.612;2023-05-16T09:29:45;8.52;;;1.63;;
42094;SDS011;27753;55.724;37.612;2023-05-16T09:32:15;6.97;;;1.85;;
42094;SDS011;27753;55.724;37.612;2023-05-16T09:34:45;6.30;;;1.50;;
42094;SDS011;27753;55.724;37.612;2023-05-16T09:37:19;7.60;;;1.30;;
42094;SDS011;27753;55.724;37.612;2023-05-16T09:39:48;4.25;;;1.63;;
42094;SDS011;27753;55.724;37.612;2023-05-16T09:42:16;7.90;;;1.98;;
42094;SDS011;27753;55.724;37.612;2023-05-16T09:44:46;5.22;;;1.50;;
42094;SDS011;27753;55.724;37.612;2023-05-16T09:47:15;8.23;;;2.10;;
42094;SDS011;27753;55.724;37.612;2023-05-16T09:49:45;4.45;;;1.52;;
42094;SDS011;27753;55.724;37.612;2023-05-16T09:52:15;9.65;;;1.85;;
42094;SDS011;27753;55.724;37.612;2023-05-16T09:57:07;2.55;;;1.17;;
42094;SDS011;27753;55.724;37.612;2023-05-16T09:59:37;2.55;;;1.10;;
42094;SDS011;27753;55.724;37.612;2023-05-16T10:02:04;9.80;;;1.95;;
42094;SDS011;27753;55.724;37.612;2023-05-16T10:04:32;4.80;;;1.90;;
42094;SDS011;27753;55.724;37.612;2023-05-16T10:07:00;3.33;;;1.17;;
42094;SDS011;27753;55.724;37.612;2023-05-16T10:09:28;3.40;;;1.27;;
42094;SDS011;27753;55.724;37.612;2023-05-16T10:11:56;6.93;;;1.67;;
42094;SDS011;27753;55.724;37.612;2023-05-16T10:14:27;4.30;;;1.38;;
42094;SDS011;27753;55.724;37.612;2023-05-16T10:16:53;8.85;;;2.33;;
42094;SDS011;27753;55.724;37.612;2023-05-16T10:19:21;3.33;;;1.80;;
42094;SDS011;27753;55.724;37.612;2023-05-16T10:21:50;7.65;;;2.17;;
42094;SDS011;27753;55.724;37.612;2023-05-16T10:24:21;7.43;;;2.13;;
42094;SDS011;27753;55.724;37.612;2023-05-16T10:26:50;6.65;;;2.00;;
42094;SDS011;27753;55.724;37.612;2023-05-16T10:29:19;11.80;;;6.65;;
42094;SDS011;27753;55.724;37.612;2023-05-16T10:31:45;8.03;;;4.10;;
42094;SDS011;27753;55.724;37.612;2023-05-16T10:34:12;11.02;;;5.13;;
42094;SDS011;27753;55.724;37.612;2023-05-16T10:36:39;6.30;;;3.33;;
42094;SDS011;27753;55.724;37.612;2023-05-16T10:39:05;5.75;;;1.60;;
42094;SDS011;27753;55.724;37.612;2023-05-16T10:41:32;5.97;;;1.45;;
42094;SDS011;27753;55.724;37.612;2023-05-16T10:46:25;9.27;;;2.47;;
42094;SDS011;27753;55.724;37.612;2023-05-16T10:48:53;5.50;;;2.53;;
42094;SDS011;27753;55.724;37.612;2023-05-16T10:53:51;7.55;;;2.60;;
42094;SDS011;27753;55.724;37.612;2023-05-16T10:56:21;8.20;;;2.58;;
42094;SDS011;27753;55.724;37.612;2023-05-16T10:58:51;5.93;;;1.65;;
42094;SDS011;27753;55.724;37.612;2023-05-16T11:01:23;6.85;;;1.85;;
42094;SDS011;27753;55.724;37.612;2023-05-16T11:06:32;3.88;;;1.85;;
42094;SDS011;27753;55.724;37.612;2023-05-16T11:14:24;4.05;;;1.83;;
42094;SDS011;27753;55.724;37.612;2023-05-16T11:17:02;8.55;;;2.00;;
42094;SDS011;27753;55.724;37.612;2023-05-16T11:19:49;3.67;;;1.60;;
42094;SDS011;27753;55.724;37.612;2023-05-16T11:27:36;4.57;;;1.23;;
42094;SDS011;27753;55.724;37.612;2023-05-16T11:30:11;9.02;;;1.90;;
42094;SDS011;27753;55.724;37.612;2023-05-16T11:32:40;9.93;;;2.38;;
42094;SDS011;27753;55.724;37.612;2023-05-16T11:35:09;7.88;;;1.98;;
42094;SDS011;27753;55.724;37.612;2023-05-16T11:37:36;26.02;;;8.45;;
42094;SDS011;27753;55.724;37.612;2023-05-16T11:40:06;5.90;;;1.73;;
42094;SDS011;27753;55.724;37.612;2023-05-16T11:42:38;4.32;;;1.80;;
42094;SDS011;27753;55.724;37.612;2023-05-16T11:45:09;10.00;;;2.08;;
42094;SDS011;27753;55.724;37.612;2023-05-16T11:47:39;8.77;;;1.92;;
42094;SDS011;27753;55.724;37.612;2023-05-16T11:50:13;5.72;;;1.75;;
42094;SDS011;27753;55.724;37.612;2023-05-16T11:52:44;12.07;;;2.22;;
42094;SDS011;27753;55.724;37.612;2023-05-16T11:55:12;3.10;;;1.17;;
42094;SDS011;27753;55.724;37.612;2023-05-16T11:57:40;2.63;;;1.60;;
42094;SDS011;27753;55.724;37.612;2023-05-16T12:00:13;8.93;;;1.58;;
42094;SDS011;27753;55.724;37.612;2023-05-16T12:02:42;7.85;;;2.05;;
42094;SDS011;27753;55.724;37.612;2023-05-16T12:05:08;5.47;;;2.42;;
42094;SDS011;27753;55.724;37.612;2023-05-16T12:07:35;10.60;;;2.20;;
42094;SDS011;27753;55.724;37.612;2023-05-16T12:10:05;6.45;;;2.47;;
42094;SDS011;27753;55.724;37.612;2023-05-16T12:12:32;4.95;;;1.30;;
42094;SDS011;27753;55.724;37.612;2023-05-16T12:14:58;6.13;;;2.17;;
42094;SDS011;27753;55.724;37.612;2023-05-16T12:17:24;10.38;;;1.90;;
42094;SDS011;27753;55.724;37.612;2023-05-16T12:19:51;12.63;;;2.55;;
42094;SDS011;27753;55.724;37.612;2023-05-16T12:22:17;13.90;;;2.75;;
42094;SDS011;27753;55.724;37.612;2023-05-16T12:24:44;7.18;;;2.53;;
42094;SDS011;27753;55.724;37.612;2023-05-16T12:27:10;10.23;;;2.00;;
42094;SDS011;27753;55.724;37.612;2023-05-16T12:29:37;5.28;;;1.20;;
42094;SDS011;27753;55.724;37.612;2023-05-16T12:32:03;7.90;;;1.80;;
42094;SDS011;27753;55.724;37.612;2023-05-16T12:34:32;5.93;;;1.30;;
42094;SDS011;27753;55.724;37.612;2023-05-16T12:36:58;16.50;;;3.58;;
42094;SDS011;27753;55.724;37.612;2023-05-16T12:39:25;5.65;;;1.75;;
42094;SDS011;27753;55.724;37.612;2023-05-16T12:41:51;4.82;;;1.90;;
42094;SDS011;27753;55.724;37.612;2023-05-16T12:44:17;7.75;;;2.00;;
42094;SDS011;27753;55.724;37.612;2023-05-16T12:46:44;4.45;;;2.00;;
42094;SDS011;27753;55.724;37.612;2023-05-16T12:49:12;5.57;;;2.08;;
42094;SDS011;27753;55.724;37.612;2023-05-16T12:51:38;3.42;;;1.52;;
42094;SDS011;27753;55.724;37.612;2023-05-16T12:54:08;3.10;;;1.07;;
42094;SDS011;27753;55.724;37.612;2023-05-16T12:56:36;4.53;;;1.77;;
42094;SDS011;27753;55.724;37.612;2023-05-16T13:01:28;5.25;;;2.28;;
42094;SDS011;27753;55.724;37.612;2023-05-16T13:03:54;5.38;;;1.75;;
42094;SDS011;27753;55.724;37.612;2023-05-16T13:06:20;3.17;;;1.40;;
42094;SDS011;27753;55.724;37.612;2023-05-16T13:08:46;7.22;;;1.60;;
42094;SDS011;27753;55.724;37.612;2023-05-16T13:11:12;8.52;;;1.45;;
42094;SDS011;27753;55.724;37.612;2023-05-16T13:13:38;5.28;;;1.55;;
42094;SDS011;27753;55.724;37.612;2023-05-16T13:16:04;12.48;;;3.25;;
42094;SDS011;27753;55.724;37.612;2023-05-16T13:18:30;8.15;;;1.90;;
42094;SDS011;27753;55.724;37.612;2023-05-16T13:20:56;3.88;;;1.40;;
42094;SDS011;27753;55.724;37.612;2023-05-16T13:23:22;3.50;;;1.73;;
42094;SDS011;27753;55.724;37.612;2023-05-16T13:25:48;4.25;;;1.52;;
42094;SDS011;27753;55.724;37.612;2023-05-16T13:28:14;12.52;;;2.22;;
42094;SDS011;27753;55.724;37.612;2023-05-16T13:30:40;2.10;;;1.45;;
42094;SDS011;27753;55.724;37.612;2023-05-16T13:33:05;3.03;;;1.77;;
42094;SDS011;27753;55.724;37.612;2023-05-16T13:35:31;6.30;;;1.42;;
42094;SDS011;27753;55.724;37.612;2023-05-16T13:37:57;5.68;;;2.28;;
42094;SDS011;27753;55.724;37.612;2023-05-16T13:40:23;7.10;;;2.30;;
42094;SDS011;27753;55.724;37.612;2023-05-16T13:42:49;2.42;;;1.45;;
42094;SDS011;27753;55.724;37.612;2023-05-16T13:45:15;5.03;;;2.00;;
42094;SDS011;27753;55.724;37.612;2023-05-16T13:47:41;4.68;;;1.50;;
42094;SDS011;27753;55.724;37.612;2023-05-16T13:50:07;2.08;;;1.00;;
42094;SDS011;27753;55.724;37.612;2023-05-16T13:52:35;4.47;;;2.28;;
42094;SDS011;27753;55.724;37.612;2023-05-16T13:55:01;4.03;;;1.83;;
42094;SDS011;27753;55.724;37.612;2023-05-16T13:57:28;4.93;;;1.77;;
42094;SDS011;27753;55.724;37.612;2023-05-16T13:59:54;4.30;;;1.83;;
42094;SDS011;27753;55.724;37.612;2023-05-16T14:02:20;6.53;;;1.20;;
42094;SDS011;27753;55.724;37.612;2023-05-16T14:04:46;8.07;;;2.27;;
42094;SDS011;27753;55.724;37.612;2023-05-16T14:07:12;4.72;;;2.00;;
42094;SDS011;27753;55.724;37.612;2023-05-16T14:09:39;6.30;;;1.30;;
42094;SDS011;27753;55.724;37.612;2023-05-16T14:12:05;3.55;;;1.77;;
42094;SDS011;27753;55.724;37.612;2023-05-16T14:14:32;7.88;;;2.20;;
42094;SDS011;27753;55.724;37.612;2023-05-16T14:16:58;3.97;;;1.27;;
42094;SDS011;27753;55.724;37.612;2023-05-16T14:19:24;13.70;;;5.18;;
42094;SDS011;27753;55.724;37.612;2023-05-16T14:21:50;9.63;;;4.55;;
42094;SDS011;27753;55.724;37.612;2023-05-16T14:24:16;5.63;;;2.25;;
42094;SDS011;27753;55.724;37.612;2023-05-16T14:26:42;7.78;;;3.70;;
42094;SDS011;27753;55.724;37.612;2023-05-16T14:29:08;4.45;;;2.13;;
42094;SDS011;27753;55.724;37.612;2023-05-16T14:31:33;7.00;;;2.25;;
42094;SDS011;27753;55.724;37.612;2023-05-16T14:34:02;9.18;;;2.47;;
42094;SDS011;27753;55.724;37.612;2023-05-16T14:36:28;12.10;;;2.53;;
42094;SDS011;27753;55.724;37.612;2023-05-16T14:38:54;6.53;;;1.98;;
42094;SDS011;27753;55.724;37.612;2023-05-16T14:41:20;9.50;;;2.17;;
42094;SDS011;27753;55.724;37.612;2023-05-16T14:43:46;4.95;;;1.67;;
42094;SDS011;27753;55.724;37.612;2023-05-16T14:46:12;5.80;;;1.52;;
42094;SDS011;27753;55.724;37.612;2023-05-16T14:48:38;10.23;;;2.42;;
42094;SDS011;27753;55.724;37.612;2023-05-16T14:51:05;8.30;;;2.50;;
42094;SDS011;27753;55.724;37.612;2023-05-16T14:53:31;12.80;;;3.90;;
42094;SDS011;27753;55.724;37.612;2023-05-16T14:55:57;4.80;;;2.05;;
42094;SDS011;27753;55.724;37.612;2023-05-16T14:58:23;7.30;;;2.58;;
42094;SDS011;27753;55.724;37.612;2023-05-16T15:00:49;6.80;;;1.73;;
42094;SDS011;27753;55.724;37.612;2023-05-16T15:03:15;5.50;;;1.50;;
42094;SDS011;27753;55.724;37.612;2023-05-16T15:05:42;6.30;;;1.77;;
42094;SDS011;27753;55.724;37.612;2023-05-16T15:08:08;4.97;;;2.17;;
42094;SDS011;27753;55.724;37.612;2023-05-16T15:10:34;8.15;;;2.42;;
42094;SDS011;27753;55.724;37.612;2023-05-16T15:13:00;10.10;;;2.08;;
42094;SDS011;27753;55.724;37.612;2023-05-16T15:15:26;5.82;;;1.27;;